sensor_id;sensor_type;location;lat;lon;timestamp;pressure;altitude;pressure_sealevel;temperature;humidity
13593;BME280;6867;50.998;4.250;2022-12-11T00:01:28;100771.50;;;4.38;71.75
13593;BME280;6867;50.998;4.250;2022-12-11T00:03:55;100773.19;;;4.39;72.57
13593;BME280;6867;50.998;4.250;2022-12-11T00:06:22;100778.16;;;4.34;71.82
13593;BME280;6867;50.998;4.250;2022-12-11T00:08:50;100766.03;;;4.32;71.92
13593;BME280;6867;50.998;4.250;2022-12-11T00:11:17;100774.03;;;4.32;71.95
13593;BME280;6867;50.998;4.250;2022-12-11T00:13:44;100773.50;;;4.36;72.56
13593;BME280;6867;50.998;4.250;2022-12-11T00:16:13;100773.34;;;4.38;72.25
13593;BME280;6867;50.998;4.250;2022-12-11T00:18:39;100768.34;;;4.43;72.42
13593;BME280;6867;50.998;4.250;2022-12-11T00:21:10;100767.00;;;4.47;71.83
13593;BME280;6867;50.998;4.250;2022-12-11T00:23:38;100763.72;;;4.29;72.31
13593;BME280;6867;50.998;4.250;2022-12-11T00:26:05;100776.81;;;4.30;72.73
13593;BME280;6867;50.998;4.250;2022-12-11T00:28:32;100773.84;;;4.25;72.99
13593;BME280;6867;50.998;4.250;2022-12-11T00:31:03;100779.47;;;4.30;73.23
13593;BME280;6867;50.998;4.250;2022-12-11T00:33:31;100780.66;;;4.28;72.52
13593;BME280;6867;50.998;4.250;2022-12-11T00:35:58;100789.47;;;4.20;72.59
13593;BME280;6867;50.998;4.250;2022-12-11T00:38:25;100790.97;;;4.22;73.31
13593;BME280;6867;50.998;4.250;2022-12-11T00:40:52;100789.47;;;4.28;72.55
13593;BME280;6867;50.998;4.250;2022-12-11T00:43:18;100789.78;;;4.25;72.60
13593;BME280;6867;50.998;4.250;2022-12-11T00:45:46;100784.47;;;4.33;72.02
13593;BME280;6867;50.998;4.250;2022-12-11T00:48:13;100789.16;;;4.31;72.68
13593;BME280;6867;50.998;4.250;2022-12-11T00:50:41;100795.63;;;4.29;72.79
13593;BME280;6867;50.998;4.250;2022-12-11T00:53:08;100791.81;;;4.31;72.32
13593;BME280;6867;50.998;4.250;2022-12-11T00:55:36;100774.03;;;4.32;72.38
13593;BME280;6867;50.998;4.250;2022-12-11T00:58:03;100768.84;;;4.22;72.05
13593;BME280;6867;50.998;4.250;2022-12-11T01:00:30;100775.16;;;4.13;73.04
13593;BME280;6867;50.998;4.250;2022-12-11T01:02:57;100778.50;;;4.23;72.20
13593;BME280;6867;50.998;4.250;2022-12-11T01:05:24;100778.84;;;4.20;72.37
13593;BME280;6867;50.998;4.250;2022-12-11T01:07:52;100777.19;;;4.27;73.10
13593;BME280;6867;50.998;4.250;2022-12-11T01:10:19;100779.97;;;4.34;72.42
13593;BME280;6867;50.998;4.250;2022-12-11T01:12:53;100774.16;;;4.22;72.54
13593;BME280;6867;50.998;4.250;2022-12-11T01:15:21;100776.81;;;4.30;72.67
13593;BME280;6867;50.998;4.250;2022-12-11T01:17:50;100779.00;;;4.18;72.88
13593;BME280;6867;50.998;4.250;2022-12-11T01:20:18;100775.84;;;4.31;71.93
13593;BME280;6867;50.998;4.250;2022-12-11T01:22:44;100770.03;;;4.36;71.87
13593;BME280;6867;50.998;4.250;2022-12-11T01:25:13;100777.50;;;4.32;72.34
13593;BME280;6867;50.998;4.250;2022-12-11T01:27:39;100779.47;;;4.30;72.05
13593;BME280;6867;50.998;4.250;2022-12-11T01:30:07;100773.34;;;4.38;72.37
13593;BME280;6867;50.998;4.250;2022-12-11T01:32:35;100763.19;;;4.33;71.64
13593;BME280;6867;50.998;4.250;2022-12-11T01:35:02;100767.69;;;4.41;72.17
13593;BME280;6867;50.998;4.250;2022-12-11T01:37:29;100767.19;;;4.37;72.22
13593;BME280;6867;50.998;4.250;2022-12-11T01:39:56;100766.53;;;4.35;71.77
13593;BME280;6867;50.998;4.250;2022-12-11T01:42:24;100768.00;;;4.46;72.24
13593;BME280;6867;50.998;4.250;2022-12-11T01:48:04;100762.38;;;4.49;71.54
13593;BME280;6867;50.998;4.250;2022-12-11T01:50:34;100767.88;;;4.39;71.95
13593;BME280;6867;50.998;4.250;2022-12-11T01:53:04;100765.22;;;4.39;71.75
13593;BME280;6867;50.998;4.250;2022-12-11T01:55:33;100766.19;;;4.46;71.94
13593;BME280;6867;50.998;4.250;2022-12-11T01:58:02;100765.84;;;4.49;71.16
13593;BME280;6867;50.998;4.250;2022-12-11T02:00:29;100764.53;;;4.45;71.63
13593;BME280;6867;50.998;4.250;2022-12-11T02:02:56;100765.84;;;4.41;71.76
13593;BME280;6867;50.998;4.250;2022-12-11T02:05:22;100761.34;;;4.50;71.34
13593;BME280;6867;50.998;4.250;2022-12-11T02:07:52;100762.53;;;4.47;71.78
13593;BME280;6867;50.998;4.250;2022-12-11T02:10:22;100755.53;;;4.46;71.38
13593;BME280;6867;50.998;4.250;2022-12-11T02:12:56;100758.69;;;4.58;71.67
13593;BME280;6867;50.998;4.250;2022-12-11T02:15:30;100748.03;;;4.58;71.05
13593;BME280;6867;50.998;4.250;2022-12-11T02:18:06;100760.53;;;4.58;71.82
13593;BME280;6867;50.998;4.250;2022-12-11T02:20:37;100761.84;;;4.54;71.92
13593;BME280;6867;50.998;4.250;2022-12-11T02:23:23;100754.72;;;4.46;71.17
13593;BME280;6867;50.998;4.250;2022-12-11T02:25:59;100755.53;;;4.55;71.50
13593;BME280;6867;50.998;4.250;2022-12-11T02:28:36;100744.03;;;4.62;72.07
13593;BME280;6867;50.998;4.250;2022-12-11T02:31:09;100740.75;;;4.60;71.03
13593;BME280;6867;50.998;4.250;2022-12-11T02:33:44;100739.06;;;4.59;72.15
13593;BME280;6867;50.998;4.250;2022-12-11T02:36:17;100726.94;;;4.65;71.74
13593;BME280;6867;50.998;4.250;2022-12-11T02:38:48;100723.25;;;4.66;71.61
13593;BME280;6867;50.998;4.250;2022-12-11T02:41:18;100719.25;;;4.70;71.25
13593;BME280;6867;50.998;4.250;2022-12-11T02:43:49;100715.09;;;4.67;71.77
13593;BME280;6867;50.998;4.250;2022-12-11T02:46:17;100715.94;;;4.60;71.46
13593;BME280;6867;50.998;4.250;2022-12-11T02:48:46;100724.25;;;4.73;71.70
13593;BME280;6867;50.998;4.250;2022-12-11T02:51:14;100725.25;;;4.64;71.52
13593;BME280;6867;50.998;4.250;2022-12-11T02:53:42;100724.88;;;4.75;71.26
13593;BME280;6867;50.998;4.250;2022-12-11T02:56:13;100722.78;;;4.46;71.53
13593;BME280;6867;50.998;4.250;2022-12-11T02:58:44;100723.25;;;4.66;71.66
13593;BME280;6867;50.998;4.250;2022-12-11T03:01:15;100722.09;;;4.68;71.51
13593;BME280;6867;50.998;4.250;2022-12-11T03:03:41;100704.63;;;4.66;71.42
13593;BME280;6867;50.998;4.250;2022-12-11T03:06:11;100697.97;;;4.70;71.20
13593;BME280;6867;50.998;4.250;2022-12-11T03:08:38;100702.16;;;4.64;71.43
13593;BME280;6867;50.998;4.250;2022-12-11T03:11:09;100696.44;;;4.75;70.81
13593;BME280;6867;50.998;4.250;2022-12-11T03:13:36;100696.81;;;4.72;70.95
13593;BME280;6867;50.998;4.250;2022-12-11T03:16:06;100683.88;;;4.61;71.29
13593;BME280;6867;50.998;4.250;2022-12-11T03:18:44;100696.16;;;4.62;71.68
13593;BME280;6867;50.998;4.250;2022-12-11T03:21:19;100697.03;;;4.46;71.49
13593;BME280;6867;50.998;4.250;2022-12-11T03:23:56;100709.16;;;4.49;72.05
13593;BME280;6867;50.998;4.250;2022-12-11T03:26:28;100701.34;;;4.56;71.48
13593;BME280;6867;50.998;4.250;2022-12-11T03:28:59;100710.16;;;4.48;72.28
13593;BME280;6867;50.998;4.250;2022-12-11T03:31:30;100710.97;;;4.57;72.02
13593;BME280;6867;50.998;4.250;2022-12-11T03:34:00;100716.31;;;4.57;71.80
13593;BME280;6867;50.998;4.250;2022-12-11T03:36:30;100705.13;;;4.69;71.86
13593;BME280;6867;50.998;4.250;2022-12-11T03:39:00;100712.63;;;4.66;71.58
13593;BME280;6867;50.998;4.250;2022-12-11T03:41:30;100709.78;;;4.59;72.56
13593;BME280;6867;50.998;4.250;2022-12-11T03:43:59;100706.69;;;4.47;72.30
13593;BME280;6867;50.998;4.250;2022-12-11T03:46:28;100702.53;;;4.45;71.88
13593;BME280;6867;50.998;4.250;2022-12-11T03:49:01;100707.22;;;4.35;72.88
13593;BME280;6867;50.998;4.250;2022-12-11T03:51:30;100698.53;;;4.49;72.20
13593;BME280;6867;50.998;4.250;2022-12-11T03:53:58;100697.00;;;4.55;72.14
13593;BME280;6867;50.998;4.250;2022-12-11T03:56:27;100688.34;;;4.61;71.71
13593;BME280;6867;50.998;4.250;2022-12-11T03:58:55;100674.03;;;4.70;72.08
13593;BME280;6867;50.998;4.250;2022-12-11T04:01:22;100663.91;;;4.65;70.88
13593;BME280;6867;50.998;4.250;2022-12-11T04:03:48;100664.22;;;4.62;71.48
13593;BME280;6867;50.998;4.250;2022-12-11T04:06:17;100663.38;;;4.70;71.73
13593;BME280;6867;50.998;4.250;2022-12-11T04:08:43;100656.59;;;4.59;71.16
13593;BME280;6867;50.998;4.250;2022-12-11T04:11:10;100662.25;;;4.64;71.52
13593;BME280;6867;50.998;4.250;2022-12-11T04:13:51;100676.38;;;4.65;71.74
13593;BME280;6867;50.998;4.250;2022-12-11T04:16:31;100662.72;;;4.60;71.49
13593;BME280;6867;50.998;4.250;2022-12-11T04:18:58;100669.72;;;4.69;72.01
13593;BME280;6867;50.998;4.250;2022-12-11T04:21:43;100671.50;;;4.77;71.79
13593;BME280;6867;50.998;4.250;2022-12-11T04:24:36;100652.03;;;4.76;71.43
13593;BME280;6867;50.998;4.250;2022-12-11T04:27:02;100653.22;;;4.73;71.86
13593;BME280;6867;50.998;4.250;2022-12-11T04:29:29;100655.72;;;4.67;71.07
13593;BME280;6867;50.998;4.250;2022-12-11T04:31:56;100661.06;;;4.59;71.61
13593;BME280;6867;50.998;4.250;2022-12-11T04:34:23;100661.44;;;4.56;71.59
13593;BME280;6867;50.998;4.250;2022-12-11T04:36:51;100661.59;;;4.54;71.74
13593;BME280;6867;50.998;4.250;2022-12-11T04:39:18;100665.56;;;4.66;71.95
13593;BME280;6867;50.998;4.250;2022-12-11T04:41:44;100662.69;;;4.68;71.05
13593;BME280;6867;50.998;4.250;2022-12-11T04:44:11;100666.72;;;4.64;71.16
13593;BME280;6867;50.998;4.250;2022-12-11T04:46:38;100667.06;;;4.61;72.00
13593;BME280;6867;50.998;4.250;2022-12-11T04:49:04;100646.41;;;4.71;70.66
13593;BME280;6867;50.998;4.250;2022-12-11T04:51:31;100651.38;;;4.74;70.79
13593;BME280;6867;50.998;4.250;2022-12-11T04:53:59;100647.94;;;4.65;70.84
13593;BME280;6867;50.998;4.250;2022-12-11T04:56:26;100662.88;;;4.66;71.59
13593;BME280;6867;50.998;4.250;2022-12-11T04:58:52;100670.59;;;4.53;71.32
13593;BME280;6867;50.998;4.250;2022-12-11T05:01:21;100663.25;;;4.55;71.25
13593;BME280;6867;50.998;4.250;2022-12-11T05:03:48;100669.03;;;4.67;71.50
13593;BME280;6867;50.998;4.250;2022-12-11T05:06:15;100650.75;;;4.64;71.71
13593;BME280;6867;50.998;4.250;2022-12-11T05:08:42;100661.28;;;4.49;71.14
13593;BME280;6867;50.998;4.250;2022-12-11T05:11:12;100672.41;;;4.53;72.34
13593;BME280;6867;50.998;4.250;2022-12-11T05:13:39;100660.13;;;4.52;72.39
13593;BME280;6867;50.998;4.250;2022-12-11T05:16:07;100661.44;;;4.56;71.36
13593;BME280;6867;50.998;4.250;2022-12-11T05:18:34;100666.78;;;4.47;71.82
13593;BME280;6867;50.998;4.250;2022-12-11T05:21:04;100660.75;;;4.62;71.68
13593;BME280;6867;50.998;4.250;2022-12-11T05:23:31;100665.94;;;4.47;72.48
13593;BME280;6867;50.998;4.250;2022-12-11T05:26:00;100663.75;;;4.50;71.90
13593;BME280;6867;50.998;4.250;2022-12-11T05:28:32;100662.63;;;4.45;72.28
13593;BME280;6867;50.998;4.250;2022-12-11T05:31:00;100655.19;;;4.32;72.36
13593;BME280;6867;50.998;4.250;2022-12-11T05:33:28;100659.34;;;4.35;72.64
13593;BME280;6867;50.998;4.250;2022-12-11T05:35:55;100667.13;;;4.36;72.81
13593;BME280;6867;50.998;4.250;2022-12-11T05:38:23;100660.16;;;4.35;73.10
13593;BME280;6867;50.998;4.250;2022-12-11T05:41:00;100666.78;;;4.47;72.84
13593;BME280;6867;50.998;4.250;2022-12-11T05:43:30;100657.31;;;4.45;72.75
13593;BME280;6867;50.998;4.250;2022-12-11T05:46:04;100646.16;;;4.49;72.90
13593;BME280;6867;50.998;4.250;2022-12-11T05:48:31;100641.00;;;4.48;72.58
13593;BME280;6867;50.998;4.250;2022-12-11T05:50:58;100651.66;;;4.48;72.58
13593;BME280;6867;50.998;4.250;2022-12-11T05:53:26;100638.66;;;4.53;71.61
13593;BME280;6867;50.998;4.250;2022-12-11T05:55:53;100640.09;;;4.64;72.34
13593;BME280;6867;50.998;4.250;2022-12-11T05:58:20;100632.63;;;4.59;71.41
13593;BME280;6867;50.998;4.250;2022-12-11T06:00:48;100635.34;;;4.43;71.81
13593;BME280;6867;50.998;4.250;2022-12-11T06:03:15;100633.53;;;4.43;71.61
13593;BME280;6867;50.998;4.250;2022-12-11T06:05:42;100645.47;;;4.56;71.56
13593;BME280;6867;50.998;4.250;2022-12-11T06:08:09;100643.19;;;4.44;71.89
13593;BME280;6867;50.998;4.250;2022-12-11T06:10:35;100639.81;;;4.50;71.78
13593;BME280;6867;50.998;4.250;2022-12-11T06:13:02;100634.88;;;4.39;71.54
13593;BME280;6867;50.998;4.250;2022-12-11T06:15:29;100647.97;;;4.49;72.65
13593;BME280;6867;50.998;4.250;2022-12-11T06:17:57;100639.31;;;4.47;71.57
13593;BME280;6867;50.998;4.250;2022-12-11T06:20:24;100638.41;;;4.32;72.18
13593;BME280;6867;50.998;4.250;2022-12-11T06:22:51;100647.84;;;4.26;71.77
13593;BME280;6867;50.998;4.250;2022-12-11T06:25:17;100640.34;;;4.38;71.97
13593;BME280;6867;50.998;4.250;2022-12-11T06:27:44;100646.91;;;4.11;72.45
13593;BME280;6867;50.998;4.250;2022-12-11T06:30:12;100640.56;;;4.20;72.40
13593;BME280;6867;50.998;4.250;2022-12-11T06:32:38;100630.91;;;4.35;71.81
13593;BME280;6867;50.998;4.250;2022-12-11T06:35:07;100621.75;;;4.38;71.30
13593;BME280;6867;50.998;4.250;2022-12-11T06:37:34;100624.78;;;4.35;72.50
13593;BME280;6867;50.998;4.250;2022-12-11T06:40:01;100631.25;;;4.32;71.95
13593;BME280;6867;50.998;4.250;2022-12-11T06:42:28;100623.44;;;4.31;72.43
13593;BME280;6867;50.998;4.250;2022-12-11T06:44:55;100622.44;;;4.32;71.20
13593;BME280;6867;50.998;4.250;2022-12-11T06:47:24;100627.44;;;4.27;72.09
13593;BME280;6867;50.998;4.250;2022-12-11T06:49:51;100620.44;;;4.25;72.19
13593;BME280;6867;50.998;4.250;2022-12-11T06:52:19;100629.94;;;4.28;71.13
13593;BME280;6867;50.998;4.250;2022-12-11T06:54:46;100618.78;;;4.24;71.01
13593;BME280;6867;50.998;4.250;2022-12-11T06:57:13;100623.81;;;4.11;71.59
13593;BME280;6867;50.998;4.250;2022-12-11T06:59:40;100620.44;;;4.25;71.77
13593;BME280;6867;50.998;4.250;2022-12-11T07:02:08;100621.25;;;4.34;70.82
13593;BME280;6867;50.998;4.250;2022-12-11T07:04:37;100628.75;;;4.31;71.08
13593;BME280;6867;50.998;4.250;2022-12-11T07:07:04;100632.56;;;4.36;71.00
13593;BME280;6867;50.998;4.250;2022-12-11T07:09:32;100636.25;;;4.27;71.35
13593;BME280;6867;50.998;4.250;2022-12-11T07:11:59;100636.28;;;4.11;71.35
13593;BME280;6867;50.998;4.250;2022-12-11T07:14:25;100642.41;;;4.19;71.70
13593;BME280;6867;50.998;4.250;2022-12-11T07:16:52;100644.91;;;4.13;71.43
13593;BME280;6867;50.998;4.250;2022-12-11T07:19:19;100635.91;;;4.22;71.58
13593;BME280;6867;50.998;4.250;2022-12-11T07:21:45;100627.91;;;4.30;71.56
13593;BME280;6867;50.998;4.250;2022-12-11T07:24:12;100620.91;;;4.45;70.78
13593;BME280;6867;50.998;4.250;2022-12-11T07:26:40;100627.53;;;4.49;71.06
13593;BME280;6867;50.998;4.250;2022-12-11T07:29:07;100626.72;;;4.41;70.60
13593;BME280;6867;50.998;4.250;2022-12-11T07:31:34;100656.81;;;4.41;71.08
13593;BME280;6867;50.998;4.250;2022-12-11T07:34:04;100653.97;;;4.43;70.85
13593;BME280;6867;50.998;4.250;2022-12-11T07:36:31;100651.50;;;4.41;71.23
13593;BME280;6867;50.998;4.250;2022-12-11T07:38:59;100649.50;;;4.43;71.46
13593;BME280;6867;50.998;4.250;2022-12-11T07:41:26;100646.84;;;4.43;71.13
13593;BME280;6867;50.998;4.250;2022-12-11T07:43:54;100642.84;;;4.47;71.25
13593;BME280;6867;50.998;4.250;2022-12-11T07:46:23;100639.34;;;4.39;70.81
13593;BME280;6867;50.998;4.250;2022-12-11T07:48:50;100633.03;;;4.48;70.51
13593;BME280;6867;50.998;4.250;2022-12-11T07:51:19;100636.81;;;4.54;70.21
13593;BME280;6867;50.998;4.250;2022-12-11T07:53:48;100626.53;;;4.50;70.19
13593;BME280;6867;50.998;4.250;2022-12-11T07:56:16;100634.56;;;4.26;71.13
13593;BME280;6867;50.998;4.250;2022-12-11T07:58:43;100646.50;;;4.38;70.88
13593;BME280;6867;50.998;4.250;2022-12-11T08:01:12;100638.22;;;4.33;70.70
13593;BME280;6867;50.998;4.250;2022-12-11T08:03:40;100641.88;;;4.40;70.17
13593;BME280;6867;50.998;4.250;2022-12-11T08:06:08;100627.56;;;4.33;70.47
13593;BME280;6867;50.998;4.250;2022-12-11T08:08:35;100627.63;;;4.17;70.77
13593;BME280;6867;50.998;4.250;2022-12-11T08:11:02;100634.25;;;4.21;70.21
13593;BME280;6867;50.998;4.250;2022-12-11T08:13:29;100623.94;;;4.18;70.62
13593;BME280;6867;50.998;4.250;2022-12-11T08:15:56;100626.13;;;4.22;70.49
13593;BME280;6867;50.998;4.250;2022-12-11T08:18:24;100634.41;;;4.28;69.88
13593;BME280;6867;50.998;4.250;2022-12-11T08:20:51;100635.25;;;4.20;70.73
13593;BME280;6867;50.998;4.250;2022-12-11T08:23:18;100628.13;;;4.12;69.98
13593;BME280;6867;50.998;4.250;2022-12-11T08:25:44;100635.78;;;4.07;70.73
13593;BME280;6867;50.998;4.250;2022-12-11T08:28:11;100609.72;;;4.03;70.67
13593;BME280;6867;50.998;4.250;2022-12-11T08:30:38;100613.22;;;3.87;69.92
13593;BME280;6867;50.998;4.250;2022-12-11T08:33:05;100622.81;;;4.04;70.27
13593;BME280;6867;50.998;4.250;2022-12-11T08:35:37;100605.84;;;4.21;70.19
13593;BME280;6867;50.998;4.250;2022-12-11T08:38:04;100604.13;;;4.37;69.22
13593;BME280;6867;50.998;4.250;2022-12-11T08:40:30;100594.63;;;4.42;68.52
13593;BME280;6867;50.998;4.250;2022-12-11T08:42:57;100585.53;;;4.37;68.95
13593;BME280;6867;50.998;4.250;2022-12-11T08:45:24;100588.69;;;4.32;68.75
13593;BME280;6867;50.998;4.250;2022-12-11T08:47:51;100591.09;;;4.11;69.30
13593;BME280;6867;50.998;4.250;2022-12-11T08:50:18;100606.72;;;3.97;70.10
13593;BME280;6867;50.998;4.250;2022-12-11T08:52:46;100600.75;;;3.79;69.97
13593;BME280;6867;50.998;4.250;2022-12-11T08:55:13;100616.56;;;3.72;70.27
13593;BME280;6867;50.998;4.250;2022-12-11T08:57:39;100607.69;;;4.05;69.32
13593;BME280;6867;50.998;4.250;2022-12-11T09:00:07;100590.34;;;4.33;68.48
13593;BME280;6867;50.998;4.250;2022-12-11T09:02:36;100585.72;;;4.27;68.88
13593;BME280;6867;50.998;4.250;2022-12-11T09:05:04;100603.38;;;4.12;69.37
13593;BME280;6867;50.998;4.250;2022-12-11T09:07:32;100610.88;;;4.00;69.93
13593;BME280;6867;50.998;4.250;2022-12-11T09:10:01;100612.34;;;4.11;69.57
13593;BME280;6867;50.998;4.250;2022-12-11T09:12:27;100608.16;;;4.24;69.42
13593;BME280;6867;50.998;4.250;2022-12-11T09:14:54;100602.34;;;4.21;68.74
13593;BME280;6867;50.998;4.250;2022-12-11T09:17:21;100590.84;;;4.37;68.48
13593;BME280;6867;50.998;4.250;2022-12-11T09:19:47;100582.16;;;4.43;68.03
13593;BME280;6867;50.998;4.250;2022-12-11T09:22:14;100569.38;;;4.38;67.98
13593;BME280;6867;50.998;4.250;2022-12-11T09:24:41;100557.78;;;4.31;68.58
13593;BME280;6867;50.998;4.250;2022-12-11T09:27:09;100559.25;;;4.34;67.79
13593;BME280;6867;50.998;4.250;2022-12-11T09:29:37;100555.13;;;4.31;68.00
13593;BME280;6867;50.998;4.250;2022-12-11T09:32:04;100554.41;;;4.45;67.90
13593;BME280;6867;50.998;4.250;2022-12-11T09:34:31;100561.63;;;4.60;67.22
13593;BME280;6867;50.998;4.250;2022-12-11T09:36:57;100553.81;;;4.66;67.30
13593;BME280;6867;50.998;4.250;2022-12-11T09:39:24;100563.97;;;4.63;67.10
13593;BME280;6867;50.998;4.250;2022-12-11T09:41:54;100535.97;;;4.44;67.37
13593;BME280;6867;50.998;4.250;2022-12-11T09:44:40;100530.13;;;4.48;66.87
13593;BME280;6867;50.998;4.250;2022-12-11T09:47:21;100521.81;;;4.74;66.52
13593;BME280;6867;50.998;4.250;2022-12-11T09:49:52;100523.09;;;4.87;66.48
13593;BME280;6867;50.998;4.250;2022-12-11T09:52:24;100530.78;;;5.05;66.14
13593;BME280;6867;50.998;4.250;2022-12-11T09:54:54;100523.13;;;4.79;66.73
13593;BME280;6867;50.998;4.250;2022-12-11T09:57:31;100523.66;;;4.74;66.85
13593;BME280;6867;50.998;4.250;2022-12-11T10:00:13;100514.50;;;4.77;66.19
13593;BME280;6867;50.998;4.250;2022-12-11T10:02:52;100522.53;;;4.68;66.94
13593;BME280;6867;50.998;4.250;2022-12-11T10:05:29;100544.22;;;5.11;66.25
13593;BME280;6867;50.998;4.250;2022-12-11T10:08:04;100503.78;;;4.85;66.07
13593;BME280;6867;50.998;4.250;2022-12-11T10:10:39;100509.38;;;4.98;66.02
13593;BME280;6867;50.998;4.250;2022-12-11T10:13:15;100516.63;;;5.04;65.79
13593;BME280;6867;50.998;4.250;2022-12-11T10:15:51;100522.56;;;5.14;65.79
13593;BME280;6867;50.998;4.250;2022-12-11T10:18:22;100510.16;;;5.21;65.86
13593;BME280;6867;50.998;4.250;2022-12-11T10:20:51;100469.13;;;4.93;65.05
13593;BME280;6867;50.998;4.250;2022-12-11T10:23:20;100464.44;;;5.18;64.33
13593;BME280;6867;50.998;4.250;2022-12-11T10:25:50;100464.28;;;5.34;64.89
13593;BME280;6867;50.998;4.250;2022-12-11T10:28:19;100454.75;;;5.55;64.11
13593;BME280;6867;50.998;4.250;2022-12-11T10:30:48;100437.03;;;5.47;63.64
13593;BME280;6867;50.998;4.250;2022-12-11T10:33:20;100425.56;;;5.61;63.02
13593;BME280;6867;50.998;4.250;2022-12-11T10:35:49;100444.56;;;5.43;63.69
13593;BME280;6867;50.998;4.250;2022-12-11T10:38:21;100448.50;;;5.47;64.20
13593;BME280;6867;50.998;4.250;2022-12-11T10:40:52;100421.34;;;5.52;63.12
13593;BME280;6867;50.998;4.250;2022-12-11T10:43:31;100404.50;;;5.52;62.63
13593;BME280;6867;50.998;4.250;2022-12-11T10:45:58;100401.19;;;5.35;62.65
13593;BME280;6867;50.998;4.250;2022-12-11T10:48:26;100399.81;;;5.39;62.94
13593;BME280;6867;50.998;4.250;2022-12-11T10:50:59;100401.41;;;5.48;62.96
13593;BME280;6867;50.998;4.250;2022-12-11T10:53:27;100404.41;;;5.15;62.88
13593;BME280;6867;50.998;4.250;2022-12-11T10:55:55;100399.91;;;5.45;62.38
13593;BME280;6867;50.998;4.250;2022-12-11T10:58:24;100399.00;;;5.23;63.45
13593;BME280;6867;50.998;4.250;2022-12-11T11:01:02;100412.59;;;5.58;62.75
13593;BME280;6867;50.998;4.250;2022-12-11T11:03:33;100400.66;;;5.54;62.74
13593;BME280;6867;50.998;4.250;2022-12-11T11:06:02;100371.88;;;5.35;62.84
13593;BME280;6867;50.998;4.250;2022-12-11T11:08:38;100399.22;;;4.99;63.30
13593;BME280;6867;50.998;4.250;2022-12-11T11:11:05;100424.91;;;5.44;63.21
13593;BME280;6867;50.998;4.250;2022-12-11T11:13:33;100415.63;;;5.40;63.13
13593;BME280;6867;50.998;4.250;2022-12-11T11:16:02;100390.44;;;5.43;62.84
13593;BME280;6867;50.998;4.250;2022-12-11T11:18:31;100386.22;;;5.34;62.54
13593;BME280;6867;50.998;4.250;2022-12-11T11:21:00;100396.44;;;5.45;63.31
13593;BME280;6867;50.998;4.250;2022-12-11T11:23:27;100391.81;;;5.39;62.65
13593;BME280;6867;50.998;4.250;2022-12-11T11:25:55;100412.97;;;5.70;63.02
13593;BME280;6867;50.998;4.250;2022-12-11T11:28:24;100390.72;;;5.92;62.09
13593;BME280;6867;50.998;4.250;2022-12-11T11:31:01;100363.63;;;6.46;61.04
13593;BME280;6867;50.998;4.250;2022-12-11T11:33:30;100318.91;;;5.91;60.87
13593;BME280;6867;50.998;4.250;2022-12-11T11:36:01;100342.44;;;5.87;61.22
13593;BME280;6867;50.998;4.250;2022-12-11T11:38:31;100385.53;;;6.20;61.38
13593;BME280;6867;50.998;4.250;2022-12-11T11:41:07;100372.19;;;6.20;61.52
13593;BME280;6867;50.998;4.250;2022-12-11T11:43:43;100328.56;;;6.49;60.03
13593;BME280;6867;50.998;4.250;2022-12-11T11:46:14;100329.13;;;6.23;60.82
13593;BME280;6867;50.998;4.250;2022-12-11T11:48:49;100323.09;;;6.36;60.13
13593;BME280;6867;50.998;4.250;2022-12-11T11:51:22;100316.38;;;6.19;59.87
13593;BME280;6867;50.998;4.250;2022-12-11T11:53:52;100352.94;;;6.25;60.51
13593;BME280;6867;50.998;4.250;2022-12-11T11:56:21;100347.84;;;6.30;60.57
13593;BME280;6867;50.998;4.250;2022-12-11T11:58:56;100302.31;;;6.10;60.17
13593;BME280;6867;50.998;4.250;2022-12-11T12:01:27;100319.34;;;6.09;60.53
13593;BME280;6867;50.998;4.250;2022-12-11T12:03:54;100335.59;;;6.14;60.73
13593;BME280;6867;50.998;4.250;2022-12-11T12:06:41;100311.16;;;6.32;60.05
13593;BME280;6867;50.998;4.250;2022-12-11T12:09:19;100295.84;;;6.41;59.75
13593;BME280;6867;50.998;4.250;2022-12-11T12:11:54;100283.66;;;6.32;59.28
13593;BME280;6867;50.998;4.250;2022-12-11T12:14:25;100281.56;;;6.27;59.01
13593;BME280;6867;50.998;4.250;2022-12-11T12:17:05;100282.44;;;6.34;59.42
13593;BME280;6867;50.998;4.250;2022-12-11T12:19:46;100314.19;;;6.08;60.28
13593;BME280;6867;50.998;4.250;2022-12-11T12:22:26;100318.09;;;5.90;60.72
13593;BME280;6867;50.998;4.250;2022-12-11T12:25:04;100311.28;;;5.88;60.50
13593;BME280;6867;50.998;4.250;2022-12-11T12:27:43;100311.72;;;5.91;60.59
13593;BME280;6867;50.998;4.250;2022-12-11T12:30:14;100295.75;;;6.06;60.13
13593;BME280;6867;50.998;4.250;2022-12-11T12:32:49;100305.41;;;5.92;60.55
13593;BME280;6867;50.998;4.250;2022-12-11T12:35:30;100308.50;;;6.11;60.16
13593;BME280;6867;50.998;4.250;2022-12-11T12:38:06;100329.31;;;5.86;61.02
13593;BME280;6867;50.998;4.250;2022-12-11T12:40:40;100352.84;;;5.82;61.56
13593;BME280;6867;50.998;4.250;2022-12-11T12:43:31;100345.66;;;5.97;61.21
13593;BME280;6867;50.998;4.250;2022-12-11T12:46:12;100339.53;;;5.82;61.52
13593;BME280;6867;50.998;4.250;2022-12-11T12:48:45;100344.97;;;5.74;61.41
13593;BME280;6867;50.998;4.250;2022-12-11T12:51:12;100353.97;;;5.73;61.58
13593;BME280;6867;50.998;4.250;2022-12-11T12:53:47;100354.69;;;5.67;61.69
13593;BME280;6867;50.998;4.250;2022-12-11T12:56:14;100384.56;;;5.62;62.05
13593;BME280;6867;50.998;4.250;2022-12-11T12:58:43;100401.84;;;5.52;63.31
13593;BME280;6867;50.998;4.250;2022-12-11T13:01:16;100416.91;;;5.74;62.53
13593;BME280;6867;50.998;4.250;2022-12-11T13:03:53;100426.66;;;5.67;63.39
13593;BME280;6867;50.998;4.250;2022-12-11T13:06:32;100417.28;;;5.71;63.36
13593;BME280;6867;50.998;4.250;2022-12-11T13:09:12;100422.34;;;5.66;63.68
13593;BME280;6867;50.998;4.250;2022-12-11T13:11:40;100422.81;;;5.69;63.96
13593;BME280;6867;50.998;4.250;2022-12-11T13:14:23;100442.66;;;5.52;64.58
13593;BME280;6867;50.998;4.250;2022-12-11T13:17:04;100434.66;;;5.67;63.90
13593;BME280;6867;50.998;4.250;2022-12-11T13:19:33;100436.56;;;5.58;64.01
13593;BME280;6867;50.998;4.250;2022-12-11T13:22:02;100441.53;;;5.32;64.04
13593;BME280;6867;50.998;4.250;2022-12-11T13:24:32;100449.03;;;5.28;64.63
13593;BME280;6867;50.998;4.250;2022-12-11T13:27:08;100441.53;;;5.32;64.62